createdAt,value
2022-10-11T00:01:43.998Z,21.35
2022-10-11T00:04:10.763Z,20.98
2022-10-11T00:06:38.383Z,18.85
2022-10-11T00:09:06.123Z,18.95
2022-10-11T00:11:33.050Z,18.88
2022-10-11T00:13:59.685Z,20.23
2022-10-11T00:16:26.422Z,20.77
2022-10-11T00:18:53.195Z,22.45
2022-10-11T00:21:21.076Z,22.50
2022-10-11T00:23:48.712Z,22.33
2022-10-11T00:26:15.556Z,22.60
2022-10-11T00:28:42.563Z,24.70
2022-10-11T00:31:13.127Z,25.55
2022-10-11T00:33:40.251Z,25.38
2022-10-11T00:36:08.985Z,23.63
2022-10-11T00:38:35.976Z,23.43
2022-10-11T00:41:02.619Z,21.40
2022-10-11T00:43:31.006Z,21.55
2022-10-11T00:45:57.688Z,21.48
2022-10-11T00:48:47.402Z,22.27
2022-10-11T00:51:23.511Z,23.10
2022-10-11T00:53:51.888Z,22.92
2022-10-11T00:56:26.381Z,23.50
2022-10-11T00:58:54.809Z,26.90
2022-10-11T01:01:21.916Z,27.08
2022-10-11T01:03:48.588Z,25.02
2022-10-11T01:06:16.141Z,25.77
2022-10-11T01:08:44.149Z,24.92
2022-10-11T01:11:17.974Z,25.48
2022-10-11T01:14:31.813Z,25.27
2022-10-11T01:17:17.400Z,22.92
2022-10-11T01:19:59.192Z,23.38
2022-10-11T01:22:48.882Z,24.58
2022-10-11T01:25:32.747Z,23.48
2022-10-11T01:28:15.465Z,24.33
2022-10-11T01:30:42.979Z,24.80
2022-10-11T01:33:18.035Z,25.10
2022-10-11T01:36:09.334Z,24.35
2022-10-11T01:38:52.039Z,25.05
2022-10-11T01:41:28.204Z,26.20
2022-10-11T01:43:59.708Z,25.08
2022-10-11T01:46:29.010Z,25.88
2022-10-11T01:48:58.444Z,26.05
2022-10-11T01:51:29.904Z,25.05
2022-10-11T01:54:06.992Z,25.20
2022-10-11T01:57:20.310Z,27.17
2022-10-11T01:59:58.940Z,26.35
2022-10-11T02:02:46.548Z,27.80
2022-10-11T02:05:31.551Z,26.73
2022-10-11T02:08:18.087Z,27.02
2022-10-11T02:10:55.013Z,26.77
2022-10-11T02:13:34.198Z,25.42
2022-10-11T02:16:03.920Z,26.30
2022-10-11T02:18:36.715Z,25.70
2022-10-11T02:21:08.674Z,27.67
2022-10-11T02:23:43.175Z,28.80
2022-10-11T02:26:12.196Z,27.17
2022-10-11T02:28:42.293Z,26.77
2022-10-11T02:31:11.365Z,27.55
2022-10-11T02:33:44.291Z,26.97
2022-10-11T02:36:26.905Z,26.63
2022-10-11T02:38:59.091Z,26.23
2022-10-11T02:41:31.238Z,28.38
2022-10-11T02:44:04.229Z,27.13
2022-10-11T02:46:31.484Z,27.75
2022-10-11T02:48:59.812Z,26.73
2022-10-11T02:51:33.396Z,25.95
2022-10-11T02:54:00.461Z,26.00
2022-10-11T02:56:27.084Z,27.23
2022-10-11T02:58:53.773Z,27.55
2022-10-11T03:01:20.872Z,25.63
2022-10-11T03:03:47.582Z,26.08
2022-10-11T03:06:14.373Z,28.23
2022-10-11T03:08:41.098Z,30.73
2022-10-11T03:11:07.940Z,29.45
2022-10-11T03:13:34.772Z,26.75
2022-10-11T03:16:07.333Z,25.55
2022-10-11T03:18:34.328Z,25.27
2022-10-11T03:21:01.002Z,28.42
2022-10-11T03:23:27.618Z,26.20
2022-10-11T03:25:54.380Z,25.88
2022-10-11T03:28:21.472Z,26.02
2022-10-11T03:30:52.240Z,23.40
2022-10-11T03:33:19.628Z,25.67
2022-10-11T03:35:47.957Z,25.60
2022-10-11T03:38:20.536Z,25.92
2022-10-11T03:40:47.291Z,24.30
2022-10-11T03:43:14.248Z,25.83
2022-10-11T03:45:43.785Z,27.02
2022-10-11T03:48:11.060Z,26.25
2022-10-11T03:50:38.294Z,25.88
2022-10-11T03:53:06.766Z,26.67
2022-10-11T03:55:33.554Z,26.98
2022-10-11T03:58:00.341Z,25.75
2022-10-11T04:00:27.009Z,25.30
2022-10-11T04:02:53.625Z,25.02
2022-10-11T04:05:21.378Z,25.80
2022-10-11T04:07:48.029Z,24.45
2022-10-11T04:10:14.649Z,23.95
2022-10-11T04:12:41.373Z,24.33
2022-10-11T04:15:08.326Z,26.17
2022-10-11T04:17:34.928Z,25.77
2022-10-11T04:20:01.723Z,25.85
2022-10-11T04:22:28.497Z,25.85
2022-10-11T04:24:55.240Z,27.05
2022-10-11T04:27:21.840Z,26.83
2022-10-11T04:29:48.552Z,26.42
2022-10-11T04:32:15.247Z,25.65
2022-10-11T04:34:42.095Z,25.80
2022-10-11T04:37:08.755Z,26.58
2022-10-11T04:39:35.391Z,25.15
2022-10-11T04:42:02.015Z,25.92
2022-10-11T04:44:28.661Z,26.08
2022-10-11T04:46:55.315Z,24.48
2022-10-11T04:49:22.205Z,25.83
2022-10-11T04:51:48.961Z,24.40
2022-10-11T04:54:16.104Z,26.15
2022-10-11T04:56:42.760Z,27.90
2022-10-11T04:59:09.533Z,27.88
2022-10-11T05:01:36.241Z,26.85
2022-10-11T05:04:03.441Z,26.17
2022-10-11T05:06:30.144Z,25.50
2022-10-11T05:08:56.772Z,25.27
2022-10-11T05:11:23.383Z,26.05
2022-10-11T05:13:50.096Z,25.52
2022-10-11T05:16:17.694Z,26.20
2022-10-11T05:18:44.832Z,26.58
2022-10-11T05:21:16.610Z,27.27
2022-10-11T05:23:43.298Z,24.27
2022-10-11T05:26:10.163Z,24.17
2022-10-11T05:28:36.884Z,24.42
2022-10-11T05:31:04.056Z,23.60
2022-10-11T05:33:30.921Z,23.05
2022-10-11T05:35:57.656Z,23.88
2022-10-11T05:38:24.397Z,24.30
2022-10-11T05:40:51.715Z,24.92
2022-10-11T05:43:18.683Z,26.75
2022-10-11T05:45:45.536Z,26.40
2022-10-11T05:48:13.057Z,26.35
2022-10-11T05:50:39.812Z,24.35
2022-10-11T05:53:07.158Z,23.95
2022-10-11T05:55:42.423Z,25.08
2022-10-11T05:58:13.085Z,24.13
2022-10-11T06:00:39.932Z,24.85
2022-10-11T06:03:07.962Z,24.45
2022-10-11T06:05:35.413Z,26.23
2022-10-11T06:08:03.134Z,24.75
2022-10-11T06:10:29.953Z,24.55
2022-10-11T06:12:56.571Z,23.48
2022-10-11T06:15:23.591Z,22.90
2022-10-11T06:17:50.419Z,22.80
2022-10-11T06:20:17.490Z,22.48
2022-10-11T06:22:44.126Z,22.27
2022-10-11T06:25:10.919Z,23.00
2022-10-11T06:27:37.904Z,23.90
2022-10-11T06:30:05.511Z,22.73
2022-10-11T06:32:32.269Z,22.30
2022-10-11T06:34:58.865Z,23.02
2022-10-11T06:37:25.507Z,21.25
2022-10-11T06:39:52.184Z,20.85
2022-10-11T06:42:18.858Z,20.10
2022-10-11T06:44:45.509Z,19.80
2022-10-11T06:47:12.215Z,19.42
2022-10-11T06:49:38.865Z,19.58
2022-10-11T06:52:05.566Z,18.45
2022-10-11T06:54:32.159Z,18.88
2022-10-11T06:56:59.301Z,18.05
2022-10-11T06:59:25.968Z,16.73
2022-10-11T07:01:52.577Z,18.23
2022-10-11T07:04:19.219Z,21.13
2022-10-11T07:06:45.841Z,20.83
2022-10-11T07:09:12.581Z,19.25
2022-10-11T07:11:39.233Z,17.90
2022-10-11T07:14:07.983Z,16.67
2022-10-11T07:16:36.682Z,15.77
2022-10-11T07:19:05.631Z,15.20
2022-10-11T07:21:33.459Z,15.67
2022-10-11T07:24:00.461Z,14.55
2022-10-11T07:26:28.009Z,14.93
2022-10-11T07:28:54.701Z,14.65
2022-10-11T07:31:23.799Z,14.68
2022-10-11T07:33:50.975Z,13.93
2022-10-11T07:36:17.930Z,13.15
2022-10-11T07:38:46.701Z,12.57
2022-10-11T07:41:14.052Z,12.30
2022-10-11T07:43:43.296Z,11.73
2022-10-11T07:46:11.206Z,11.57
2022-10-11T07:48:38.342Z,11.73
2022-10-11T07:51:15.192Z,10.88
2022-10-11T07:53:49.535Z,10.95
2022-10-11T07:56:18.813Z,10.68
2022-10-11T07:58:50.330Z,10.18
2022-10-11T08:01:17.520Z,10.40
2022-10-11T08:03:44.322Z,9.93
2022-10-11T08:06:13.668Z,10.25
2022-10-11T08:08:40.249Z,10.45
2022-10-11T08:11:07.528Z,9.27
2022-10-11T08:13:34.384Z,10.00
2022-10-11T08:16:01.797Z,9.30
2022-10-11T08:18:28.654Z,8.90
2022-10-11T08:20:55.299Z,8.57
2022-10-11T08:23:21.918Z,9.70
2022-10-11T08:25:49.011Z,9.23
2022-10-11T08:28:17.913Z,9.88
2022-10-11T08:30:53.214Z,9.55
2022-10-11T08:33:21.449Z,9.65
2022-10-11T08:35:50.276Z,9.50
2022-10-11T08:38:18.075Z,9.80
2022-10-11T08:40:49.968Z,9.63
2022-10-11T08:43:36.163Z,9.15
2022-10-11T08:46:05.913Z,8.88
2022-10-11T08:48:55.006Z,8.68
2022-10-11T08:51:21.567Z,8.27
2022-10-11T08:54:11.788Z,8.88
2022-10-11T08:56:40.079Z,8.65
2022-10-11T08:59:12.833Z,8.85
2022-10-11T09:01:52.905Z,9.52
2022-10-11T09:04:19.941Z,8.82
2022-10-11T09:07:23.856Z,9.02
2022-10-11T09:10:08.924Z,8.40
2022-10-11T09:12:49.579Z,8.13
2022-10-11T09:15:28.919Z,8.82
2022-10-11T09:18:20.276Z,7.97
2022-10-11T09:20:46.888Z,8.48
2022-10-11T09:23:52.291Z,8.52
2022-10-11T09:26:27.812Z,9.20
2022-10-11T09:29:28.417Z,8.15
2022-10-11T09:31:57.231Z,7.93
2022-10-11T09:34:32.352Z,8.77
2022-10-11T09:37:38.094Z,8.20
2022-10-11T09:40:10.856Z,7.93
2022-10-11T09:42:37.552Z,7.65
2022-10-11T09:45:18.142Z,8.18
2022-10-11T09:47:45.224Z,8.40
2022-10-11T09:50:22.044Z,8.48
2022-10-11T09:52:51.256Z,8.30
2022-10-11T09:55:46.524Z,8.05
2022-10-11T09:58:40.268Z,7.95
2022-10-11T10:01:09.563Z,7.40
2022-10-11T10:03:41.740Z,7.07
2022-10-11T10:06:32.610Z,8.00
2022-10-11T10:09:21.416Z,7.75
2022-10-11T10:11:48.335Z,7.33
2022-10-11T10:14:27.512Z,7.32
2022-10-11T10:17:06.613Z,8.38
2022-10-11T10:19:45.069Z,8.13
2022-10-11T10:22:22.429Z,8.10
2022-10-11T10:24:51.400Z,7.93
2022-10-11T10:27:24.477Z,7.25
2022-10-11T10:30:09.750Z,7.88
2022-10-11T10:32:53.338Z,6.82
2022-10-11T10:35:30.406Z,8.55
2022-10-11T10:38:08.498Z,11.20
2022-10-11T10:40:41.167Z,8.38
2022-10-11T10:43:15.701Z,7.97
2022-10-11T10:46:08.958Z,7.65
2022-10-11T10:52:19.966Z,7.50
2022-10-11T10:55:00.376Z,7.00
2022-10-11T10:57:49.037Z,6.72
2022-10-11T11:00:19.628Z,6.20
2022-10-11T11:03:03.008Z,9.05
2022-10-11T11:05:57.480Z,14.35
2022-10-11T11:08:38.777Z,18.20
2022-10-11T11:11:29.524Z,9.00
2022-10-11T11:14:10.207Z,6.93
2022-10-11T11:17:10.448Z,9.25
2022-10-11T11:19:41.520Z,7.65
2022-10-11T11:22:59.624Z,10.38
2022-10-11T11:25:58.659Z,8.23
2022-10-11T11:28:49.600Z,7.63
2022-10-11T11:31:41.360Z,7.90
2022-10-11T11:34:22.218Z,8.13
2022-10-11T11:37:15.358Z,7.68
2022-10-11T11:39:49.976Z,7.68
2022-10-11T11:42:16.508Z,7.60
2022-10-11T11:44:48.012Z,6.97
2022-10-11T11:47:40.654Z,7.85
2022-10-11T11:50:22.228Z,7.28
2022-10-11T11:53:00.550Z,6.88
2022-10-11T11:55:32.384Z,6.93
2022-10-11T11:58:11.248Z,6.70
2022-10-11T12:00:55.020Z,6.72
2022-10-11T12:03:27.539Z,6.60
2022-10-11T12:06:12.594Z,6.65
2022-10-11T12:08:43.625Z,7.05
2022-10-11T12:11:49.831Z,6.72
2022-10-11T12:14:22.748Z,6.93
2022-10-11T12:17:09.359Z,7.20
2022-10-11T12:19:38.042Z,7.25
2022-10-11T12:22:49.023Z,7.33
2022-10-11T12:25:18.553Z,7.55
2022-10-11T12:27:47.233Z,8.30
2022-10-11T12:30:47.751Z,6.50
2022-10-11T12:33:31.092Z,6.50
2022-10-11T12:36:01.520Z,6.55
2022-10-11T12:38:34.153Z,6.82
2022-10-11T12:41:10.062Z,6.45
2022-10-11T12:44:19.296Z,7.50
2022-10-11T12:47:31.838Z,6.72
2022-10-11T12:50:32.188Z,6.57
2022-10-11T12:53:23.597Z,6.88
2022-10-11T12:55:53.274Z,6.75
2022-10-11T13:00:52.494Z,6.53
2022-10-11T13:03:41.312Z,6.30
2022-10-11T13:06:43.345Z,6.90
2022-10-11T13:09:10.159Z,6.28
2022-10-11T13:11:52.574Z,6.07
2022-10-11T13:14:26.032Z,6.57
2022-10-11T13:17:17.452Z,6.50
2022-10-11T13:19:44.215Z,5.90
2022-10-11T13:22:23.583Z,6.55
2022-10-11T13:24:50.318Z,8.13
2022-10-11T13:27:21.481Z,16.45
2022-10-11T13:29:50.240Z,22.52
2022-10-11T13:32:24.387Z,8.40
2022-10-11T13:34:58.380Z,7.03
2022-10-11T13:37:27.559Z,8.55
2022-10-11T13:39:55.939Z,8.95
2022-10-11T13:42:31.796Z,7.80
2022-10-11T13:44:59.861Z,7.47
2022-10-11T13:47:30.003Z,6.57
2022-10-11T13:50:23.339Z,7.05
2022-10-11T13:53:09.902Z,7.00
2022-10-11T13:55:42.453Z,6.68
2022-10-11T13:58:31.591Z,7.75
2022-10-11T14:01:02.073Z,9.30
2022-10-11T14:03:44.816Z,8.50
2022-10-11T14:06:11.647Z,9.35
2022-10-11T14:08:55.251Z,10.35
2022-10-11T14:11:39.722Z,13.13
2022-10-11T14:14:34.018Z,10.05
2022-10-11T14:17:19.347Z,10.52
2022-10-11T14:19:47.945Z,12.63
2022-10-11T14:22:18.529Z,9.27
2022-10-11T14:24:48.537Z,8.50
2022-10-11T14:27:19.317Z,7.50
2022-10-11T14:30:06.038Z,7.40
2022-10-11T14:32:34.688Z,7.18
2022-10-11T14:35:01.340Z,6.68
2022-10-11T14:37:27.967Z,6.90
2022-10-11T14:39:54.823Z,8.00
2022-10-11T14:42:21.470Z,7.70
2022-10-11T14:44:48.068Z,9.57
2022-10-11T14:47:17.993Z,11.20
2022-10-11T14:49:44.732Z,10.20
2022-10-11T14:52:13.114Z,8.23
2022-10-11T14:54:40.493Z,6.90
2022-10-11T14:57:07.120Z,6.45
2022-10-11T14:59:36.991Z,6.30
2022-10-11T15:02:06.464Z,7.00
2022-10-11T15:04:33.532Z,6.78
2022-10-11T15:07:00.484Z,6.35
2022-10-11T15:09:27.103Z,6.65
2022-10-11T15:11:54.799Z,6.68
2022-10-11T15:14:23.375Z,7.35
2022-10-11T15:16:50.336Z,8.40
2022-10-11T15:19:22.628Z,8.95
2022-10-11T15:21:49.833Z,9.43
2022-10-11T15:24:16.791Z,9.43
2022-10-11T15:26:44.053Z,11.48
2022-10-11T15:29:12.202Z,12.80
2022-10-11T15:31:39.630Z,13.82
2022-10-11T15:34:06.369Z,13.00
2022-10-11T15:36:33.036Z,9.63
2022-10-11T15:39:01.637Z,7.38
2022-10-11T15:41:28.494Z,7.90
2022-10-11T15:43:55.107Z,6.55
2022-10-11T15:46:22.977Z,7.60
2022-10-11T15:48:51.237Z,7.32
2022-10-11T15:51:18.216Z,7.38
2022-10-11T15:53:44.817Z,7.57
2022-10-11T15:56:16.267Z,7.00
2022-10-11T15:58:43.296Z,8.65
2022-10-11T16:01:18.889Z,9.75
2022-10-11T16:03:47.904Z,11.57
2022-10-11T16:06:15.223Z,10.05
2022-10-11T16:08:42.016Z,10.82
2022-10-11T16:11:09.917Z,8.32
2022-10-11T16:13:36.995Z,8.85
2022-10-11T16:16:08.781Z,10.55
2022-10-11T16:18:36.245Z,10.38
2022-10-11T16:21:10.644Z,8.93
2022-10-11T16:23:38.071Z,8.48
2022-10-11T16:26:07.708Z,9.07
2022-10-11T16:28:35.645Z,9.90
2022-10-11T16:31:14.280Z,8.77
2022-10-11T16:33:45.845Z,8.95
2022-10-11T16:36:36.770Z,8.68
2022-10-11T16:39:11.801Z,8.70
2022-10-11T16:41:38.636Z,13.85
2022-10-11T16:44:05.728Z,17.05
2022-10-11T16:46:33.331Z,14.98
2022-10-11T16:49:00.052Z,23.92
2022-10-11T16:51:26.660Z,21.10
2022-10-11T16:53:53.455Z,14.25
2022-10-11T16:56:22.581Z,16.40
2022-10-11T16:58:49.384Z,20.92
2022-10-11T17:01:16.089Z,28.20
2022-10-11T17:03:42.813Z,22.48
2022-10-11T17:06:09.817Z,20.70
2022-10-11T17:08:36.593Z,21.25
2022-10-11T17:11:03.582Z,22.02
2022-10-11T17:13:30.412Z,21.45
2022-10-11T17:15:57.096Z,24.17
2022-10-11T17:18:24.004Z,22.52
2022-10-11T17:20:50.618Z,24.15
2022-10-11T17:23:17.258Z,15.77
2022-10-11T17:25:47.286Z,16.25
2022-10-11T17:28:13.983Z,16.85
2022-10-11T17:30:42.100Z,14.57
2022-10-11T17:33:09.162Z,13.02
2022-10-11T17:35:35.791Z,14.23
2022-10-11T17:38:06.165Z,14.15
2022-10-11T17:40:33.235Z,12.35
2022-10-11T17:42:59.939Z,13.68
2022-10-11T17:45:26.645Z,16.98
2022-10-11T17:47:53.324Z,16.80
2022-10-11T17:50:19.980Z,16.98
2022-10-11T17:52:46.828Z,14.98
2022-10-11T17:55:13.734Z,15.00
2022-10-11T17:57:40.490Z,13.98
2022-10-11T18:00:07.796Z,12.90
2022-10-11T18:02:34.476Z,10.57
2022-10-11T18:05:01.160Z,10.77
2022-10-11T18:07:27.750Z,9.05
2022-10-11T18:09:54.464Z,9.50
2022-10-11T18:12:21.104Z,9.20
2022-10-11T18:14:47.789Z,9.82
2022-10-11T18:17:14.405Z,11.43
2022-10-11T18:19:40.984Z,12.27
2022-10-11T18:22:07.715Z,11.48
2022-10-11T18:24:34.660Z,12.32
2022-10-11T18:27:01.427Z,11.00
2022-10-11T18:29:28.069Z,9.70
2022-10-11T18:31:54.729Z,9.20
2022-10-11T18:34:21.353Z,8.40
2022-10-11T18:36:48.160Z,8.20
2022-10-11T18:39:15.742Z,8.45
2022-10-11T18:41:44.692Z,8.18
2022-10-11T18:44:14.307Z,8.60
2022-10-11T18:46:41.373Z,9.00
2022-10-11T18:49:08.838Z,9.10
2022-10-11T18:51:40.596Z,8.93
2022-10-11T18:54:08.721Z,8.52
2022-10-11T18:56:36.933Z,9.63
2022-10-11T18:59:04.752Z,9.32
2022-10-11T19:01:38.264Z,8.88
2022-10-11T19:04:06.927Z,9.35
2022-10-11T19:06:39.744Z,9.63
2022-10-11T19:09:15.091Z,9.38
2022-10-11T19:11:41.908Z,9.25
2022-10-11T19:14:11.629Z,11.10
2022-10-11T19:16:40.886Z,10.55
2022-10-11T19:19:09.392Z,10.48
2022-10-11T19:21:36.591Z,10.52
2022-10-11T19:24:03.610Z,10.43
2022-10-11T19:26:38.432Z,10.40
2022-10-11T19:29:09.247Z,9.75
2022-10-11T19:31:40.085Z,9.65
2022-10-11T19:34:06.810Z,10.55
2022-10-11T19:36:36.679Z,10.65
2022-10-11T19:39:05.982Z,10.63
2022-10-11T19:41:33.353Z,10.48
2022-10-11T19:44:00.092Z,10.45
2022-10-11T19:46:44.875Z,10.70
2022-10-11T19:49:17.492Z,10.68
2022-10-11T19:51:44.287Z,11.25
2022-10-11T19:54:13.601Z,10.25
2022-10-11T19:56:40.688Z,11.52
2022-10-11T19:59:07.486Z,10.55
2022-10-11T20:01:35.961Z,10.57
2022-10-11T20:04:07.510Z,10.15
2022-10-11T20:06:38.660Z,11.32
2022-10-11T20:09:28.465Z,10.48
2022-10-11T20:11:54.840Z,10.75
2022-10-11T20:14:21.522Z,10.70
2022-10-11T20:16:50.126Z,10.55
2022-10-11T20:19:17.371Z,10.55
2022-10-11T20:21:44.980Z,10.75
2022-10-11T20:24:11.830Z,11.50
2022-10-11T20:26:39.304Z,10.35
2022-10-11T20:29:06.065Z,11.38
2022-10-11T20:31:34.212Z,11.13
2022-10-11T20:34:02.571Z,10.77
2022-10-11T20:36:30.295Z,11.60
2022-10-11T20:38:58.528Z,13.98
2022-10-11T20:41:31.769Z,12.45
2022-10-11T20:44:00.065Z,11.95
2022-10-11T20:46:29.922Z,10.75
2022-10-11T20:51:30.669Z,10.50
2022-10-11T20:53:58.342Z,11.95
2022-10-11T20:56:25.041Z,11.38
2022-10-11T20:58:53.535Z,11.18
2022-10-11T21:01:23.466Z,11.30
2022-10-11T21:03:50.497Z,9.60
2022-10-11T21:06:17.136Z,10.93
2022-10-11T21:08:43.832Z,10.50
2022-10-11T21:11:11.604Z,9.90
2022-10-11T21:13:38.565Z,10.38
2022-10-11T21:16:12.316Z,9.93
2022-10-11T21:18:39.421Z,9.80
2022-10-11T21:21:11.300Z,9.30
2022-10-11T21:23:38.758Z,10.10
2022-10-11T21:26:11.396Z,10.70
2022-10-11T21:28:39.396Z,10.35
2022-10-11T21:31:08.012Z,10.55
2022-10-11T21:33:35.379Z,10.20
2022-10-11T21:36:11.495Z,10.70
2022-10-11T21:38:38.429Z,10.45
2022-10-11T21:41:06.653Z,10.88
2022-10-11T21:43:35.780Z,11.15
2022-10-11T21:46:29.288Z,9.88
2022-10-11T21:49:08.650Z,10.32
2022-10-11T21:51:35.656Z,10.93
2022-10-11T21:54:02.350Z,11.43
2022-10-11T21:56:29.968Z,11.55
2022-10-11T21:58:56.975Z,11.38
2022-10-11T22:01:23.976Z,11.57
2022-10-11T22:03:52.419Z,11.27
2022-10-11T22:06:19.466Z,11.82
2022-10-11T22:08:46.101Z,12.15
2022-10-11T22:11:12.885Z,11.90
2022-10-11T22:13:39.896Z,11.30
2022-10-11T22:16:08.967Z,11.23
2022-10-11T22:18:35.691Z,11.88
2022-10-11T22:21:17.603Z,12.50
2022-10-11T22:23:46.718Z,14.38
2022-10-11T22:26:16.001Z,14.90
2022-10-11T22:28:43.370Z,17.50
2022-10-11T22:31:11.057Z,15.13
2022-10-11T22:33:38.094Z,13.13
2022-10-11T22:36:10.162Z,12.93
2022-10-11T22:38:38.763Z,12.48
2022-10-11T22:41:05.550Z,13.02
2022-10-11T22:43:32.605Z,12.88
2022-10-11T22:45:59.443Z,12.85
2022-10-11T22:48:26.429Z,12.48
2022-10-11T22:50:53.958Z,12.80
2022-10-11T22:53:20.968Z,12.90
2022-10-11T22:55:47.948Z,13.57
2022-10-11T22:58:14.940Z,13.18
2022-10-11T23:00:41.635Z,12.90
2022-10-11T23:03:08.552Z,14.32
2022-10-11T23:05:35.883Z,14.02
2022-10-11T23:08:02.520Z,13.80
2022-10-11T23:10:29.162Z,13.80
2022-10-11T23:12:55.787Z,14.32
2022-10-11T23:15:22.570Z,14.27
2022-10-11T23:17:49.185Z,14.27
2022-10-11T23:20:15.806Z,14.00
2022-10-11T23:22:42.425Z,14.30
2022-10-11T23:25:09.475Z,14.45
2022-10-11T23:27:36.334Z,14.45
2022-10-11T23:30:03.725Z,14.90
2022-10-11T23:32:30.374Z,14.10
2022-10-11T23:34:57.040Z,15.90
2022-10-11T23:37:23.769Z,15.30
2022-10-11T23:39:50.357Z,15.10
2022-10-11T23:42:16.948Z,14.73
2022-10-11T23:44:43.595Z,15.32
2022-10-11T23:47:10.257Z,15.23
2022-10-11T23:49:36.865Z,15.77
2022-10-11T23:52:03.580Z,16.30
2022-10-11T23:54:30.208Z,16.35
2022-10-11T23:56:57.156Z,16.20
2022-10-11T23:59:23.774Z,16.98
